Northeast Iowa Regional Airport
KCCY : now visible

Airfield :











YOU CAN JOIN US ON...

 
LOGIN :

Register | Disclaimer

   EN    FR    IT 

 









Legend :    VFR   Marginal VFR   IFR   Intensive IFR   Very Intensive IFR
Visi :
Ceiling :
>= 8 km
>= 3000ft
5 to 8 km
1000 to 3000 ft
1500m to 5 km
500 to 1000 ft
800 to 1500m
200 to 500 ft
< 800m
< 200 ft
Symbols :   Thunderstorms  Fog  Heavy snow  Heavy precipitations  Wind > 20 kt






- Airport Elevation : 1125 ft


KCCY - Northeast Iowa Regional

CURRENT METAR :
  • 301635Z AUTO 12007KT 6SM HZ CLR 22/19 A3017 RMK AO2

EXPIRED METARs :
  • 301615Z AUTO 11006KT 6SM BR CLR 22/19 A3017 RMK AO2
  • 301555Z AUTO 09006KT 4SM BR CLR 21/19 A3018 RMK AO2
  • 301535Z AUTO 09004KT 6SM BR CLR 20/19 A3019 RMK AO2
  • 301515Z AUTO 00000KT 6SM BR CLR 20/18 A3020 RMK AO2
  • 301455Z AUTO 05004KT 6SM BR CLR 20/18 A3021 RMK AO2
  • 301435Z AUTO 07004KT 7SM FEW130 20/18 A3020 RMK AO2
  • 301415Z AUTO 08004KT 6SM BR FEW130 20/18 A3020 RMK AO2
  • 301355Z AUTO 08005KT 6SM BR FEW190 FEW210 20/18 A3020 RMK AO2

TAF N/A
KZMP FIR / North America



MET'MAP, your aeronautical weather chart ! - Copyright ORBIFLY December 2007 - Disclaimer

ORBIFLY MET'MAP TEAM :

Programming & Development : Alexandra Zaïnal
Concept & original design : Baudouin d'Aumeries
Assistance for programming : Marc-Olivier Méhu
Technical & hardware support : Manuel Goepfert

Contact : metmap@orbifly.com




SOURCES & CREDITS :

   NOAA       Earth
Advisory